Search for airport 
image banner adimage banner adimage banner ad
image banner ad

3PS0 - Chester County Hospital

Located in West Chester, United States

ICAO - 3PS0, IATA -

Data provided by Airmate  

General information

Coordinates: N39°58'21" W75°36'6"
Elevation is 544 feet MSL.
Magnetic variation is -11° East
View others Airports in Pennsylvania

Operational data

Special qualification required
Current time UTC:
Current local time:
Weather at : KOQN - Brandywine ( 3 km )
METAR: KOQN 190015Z AUTO 22004KT 10SM CLR 22/08 A3028 RMK AO2
View NOTAMs / SUP AIP / TFR affecting this airport [VIEW]
Communications frequencies: [VIEW]

Runways:

Airport contact information

Address: West Chester United States

Satellite view of 3PS0